Dade City, FL

6:34 AM EDT on August 20, 2019 (GMT -0400)
Tank Hill | | Change Station
Active Advisory: Flood Warning

Elev 223 ft 28.37 °N, 82.21 °W | Updated 4 seconds ago

Clear
Clear
75 °F
Feels Like 72 °F
N
0
Wind Variable Wind from North
Gusts 1.3 mph

Today
High -- | Low -- °F
--% Chance of Precip.
Yesterday
High -- | Low -- °F
Precip. -- in
Pressure 30.08 in
Visibility 7.0 miles
Clouds Clear
Heat Index 72 °F
Dew Point 75 °F
Humidity 99%
Rainfall 0.00 in
Snow Depth Not available.
7:00 AM 8:03 PM
Waning Gibbous, 79% visible
METAR KZPH 201015Z AUTO 00000KT 7SM CLR 23/23 A3008 RMK A02 T02330231
Pressure 30.08 in
Visibility 7.0 miles
Clouds Clear
Heat Index 72 °F
Dew Point 75 °F
Humidity 99%
Rainfall 0.00 in
Snow Depth Not available.
7:00 AM 8:03 PM
Waning Gibbous, 79% visible
METAR KZPH 201015Z AUTO 00000KT 7SM CLR 23/23 A3008 RMK A02 T02330231

Get Your Daily Forecast Email!

Thanks for signing up!

Be on the lookout for a verification email in your inbox.

You'll start receiving severe weather alerts in your inbox..

×

10-Day Weather Forecast

Almanac

Astronomy

Aug. 20, 2019 Rise Set
Actual Time
Civil Twilight
Nautical Twilight
Astronomical Twilight
Moon
Length of Visible Light
Length of Day
Tomorrow will be .
, % of the Moon is Illuminated

Today's Extremes

State Highs State Lows

Community

WunderPhotos

Category 6

Welcome to Category 6. This is the collective home for Weather Underground's featured writeups by Dr. Jeff Masters (right), Bob Henson (left), Chris Burt, and other regular contributors.

Nearby

Air Quality

  Air Quality AQ Index Pollutant
Not available.

Snow Depth

Station Depth Elevation

Earthquake Activity

City Distance Mag. Time & Date
Minimum magnitude displayed is 2.5.

Coastal Water Temperatures

Place Temperature

Stations

Nearby Weather Stations

Station Location Temp. Windchill Dew Point Humidity Wind Precip. Elev Updated Type
                   

Watches & Warnings

Flood Warning
Issued: 8:46 PM EDT Aug. 19, 2019 – National Weather Service

... Flood Warning extended until Thursday afternoon...
the Flood Warning continues for
the Cypress Creek at Worthington Gardens
* until Thursday afternoon.
* At 08 PM Monday the stage was 8.2 feet.
* Minor flooding is occurring and minor flooding is forecast.
* Flood stage is 8.0 feet.
* Impact... at 8.0 feet... flooding begins at the Recreation Area on
State Road 54.
* Flood history... this compares to a previous crest of 8.2 feet
on Aug 12 2012.



               Fld observed forecast 8am
location stg stg day time Tue Wed Thu Fri Sat

Cypress Creek
Worthington 8.0 8.2 Mon 08 PM 8.1 8.0 7.8 7.6 msg




Lat... Lon 2819 8234 2814 8234 2814 8240 2819 8240